X  Lukk Metar værinformasjon om luftfart     EHGG Eelde Airport
Temperatur
18°C Temperatur
11°C Duggpunkt
64% Luftfuktighet



Vind
16 KM/T
10 MPT
4 M/S
9 KNP



30°
NNØ
Nåværende forhold

Klart Klart
Trykk 1018.92 (hPa) - 30.09 (inHg)
Sikt 6.2 (mil) - 10 (km)
Flyplass
Flyplass-kode EHGG

Plassering: Eelde Airport
Avstand: 14 (km)

Metar:
EHGG 201625Z AUTO 03009KT 350V060 9999 NCD 18/11 Q1019 NOSIG

Tid: 20-09-2020 18:25 CEST